createdAt,value
2023-01-22T00:03:18.107Z,5.85
2023-01-22T00:08:58.444Z,6.28
2023-01-22T00:11:50.379Z,7.70
2023-01-22T00:14:43.580Z,6.78
2023-01-22T00:17:37.983Z,5.83
2023-01-22T00:23:18.188Z,6.37
2023-01-22T00:26:12.903Z,6.12
2023-01-22T00:29:05.586Z,6.47
2023-01-22T00:31:57.774Z,6.83
2023-01-22T00:37:38.417Z,6.50
2023-01-22T00:40:32.288Z,8.78
2023-01-22T00:43:24.384Z,7.33
2023-01-22T00:46:17.688Z,7.05
2023-01-22T00:52:01.519Z,5.53
2023-01-22T01:13:43.746Z,6.08
2023-01-22T01:16:35.565Z,7.17
2023-01-22T01:19:27.492Z,7.55
2023-01-22T01:22:20.779Z,7.20
2023-01-22T01:28:59.402Z,8.45
2023-01-22T01:31:52.596Z,7.60
2023-01-22T01:34:44.372Z,8.48
2023-01-22T01:37:38.456Z,6.72
2023-01-22T01:40:30.094Z,9.23
2023-01-22T01:43:21.762Z,7.62
2023-01-22T01:46:19.812Z,8.60
2023-01-22T01:49:24.491Z,7.08
2023-01-22T02:08:37.615Z,9.53
2023-01-22T02:11:30.856Z,6.45
2023-01-22T02:46:09.016Z,6.92
2023-01-22T02:49:00.654Z,5.03
2023-01-22T02:51:53.607Z,6.58
2023-01-22T02:54:45.816Z,6.20
2023-01-22T02:57:37.470Z,8.08
2023-01-22T03:00:30.160Z,7.60
2023-01-22T03:03:21.775Z,6.37
2023-01-22T03:06:17.350Z,6.60
2023-01-22T03:09:13.595Z,10.95
2023-01-22T03:12:05.818Z,6.22
2023-01-22T03:32:11.418Z,4.70
2023-01-22T03:35:05.331Z,6.12
2023-01-22T03:37:58.993Z,6.03
2023-01-22T03:49:01.038Z,6.97
2023-01-22T03:51:52.900Z,5.35
2023-01-22T04:11:31.696Z,5.12
2023-01-22T04:14:23.917Z,6.42
2023-01-22T04:21:14.592Z,7.92
2023-01-22T04:24:10.618Z,6.50
2023-01-22T04:27:02.455Z,5.30
2023-01-22T04:29:54.590Z,5.83
2023-01-22T04:32:47.960Z,7.58
2023-01-22T04:35:48.936Z,5.37
2023-01-22T04:42:05.061Z,5.12
2023-01-22T04:47:49.838Z,5.95
2023-01-22T04:50:44.524Z,5.78
2023-01-22T04:53:36.677Z,7.00
2023-01-22T04:56:29.735Z,7.20
2023-01-22T05:02:05.820Z,6.97
2023-01-22T05:04:58.050Z,6.20
2023-01-22T05:07:49.734Z,5.37
2023-01-22T05:10:41.267Z,5.47
2023-01-22T05:13:34.435Z,5.50
2023-01-22T05:16:25.926Z,5.95
2023-01-22T05:19:18.780Z,7.92
2023-01-22T05:22:10.833Z,6.40
2023-01-22T05:25:02.770Z,6.37
2023-01-22T05:27:56.099Z,8.20
2023-01-22T05:30:52.231Z,5.90
2023-01-22T05:34:00.995Z,7.42
2023-01-22T05:42:22.004Z,6.05
2023-01-22T05:45:15.179Z,5.97
2023-01-22T05:48:11.129Z,5.62
2023-01-22T05:51:19.640Z,5.47
2023-01-22T05:57:05.008Z,5.65
2023-01-22T05:59:57.058Z,5.50
2023-01-22T06:02:56.746Z,5.65
2023-01-22T06:05:48.592Z,7.00
2023-01-22T06:08:41.337Z,5.03
2023-01-22T06:11:33.156Z,6.65
2023-01-22T06:14:24.572Z,5.25
2023-01-22T06:17:18.254Z,8.00
2023-01-22T06:20:13.667Z,7.28
2023-01-22T06:23:10.363Z,5.45
2023-01-22T06:26:05.328Z,6.45
2023-01-22T06:31:35.453Z,5.78
2023-01-22T06:34:29.087Z,6.67
2023-01-22T06:37:25.655Z,5.70
2023-01-22T06:40:18.169Z,6.90
2023-01-22T06:46:22.771Z,6.33
2023-01-22T06:52:12.045Z,6.25
2023-01-22T06:55:03.386Z,6.85
2023-01-22T06:57:58.597Z,8.00
2023-01-22T07:03:37.117Z,7.28
2023-01-22T07:09:44.317Z,6.62
2023-01-22T07:12:36.229Z,7.22
2023-01-22T07:15:29.709Z,7.67
2023-01-22T07:18:23.676Z,6.53
2023-01-22T07:21:15.540Z,5.80
2023-01-22T07:26:52.934Z,7.83
2023-01-22T07:32:26.861Z,4.97
2023-01-22T07:35:19.187Z,6.83
2023-01-22T07:40:49.526Z,6.10
2023-01-22T07:43:40.925Z,5.72
2023-01-22T07:51:54.990Z,6.75
2023-01-22T07:58:07.195Z,6.12
2023-01-22T08:03:52.603Z,7.58
2023-01-22T08:06:45.068Z,6.72
2023-01-22T08:15:48.079Z,5.85
2023-01-22T08:18:40.501Z,6.55
2023-01-22T08:21:32.207Z,9.33
2023-01-22T08:27:34.916Z,4.75
2023-01-22T08:30:28.091Z,4.45
2023-01-22T08:33:20.782Z,4.47
2023-01-22T08:40:04.812Z,3.95
2023-01-22T08:47:13.579Z,5.35
2023-01-22T08:52:50.464Z,6.30
2023-01-22T08:55:42.569Z,9.53
2023-01-22T08:58:34.672Z,8.10
2023-01-22T09:01:26.519Z,5.53
2023-01-22T09:07:37.691Z,6.60
2023-01-22T09:10:29.457Z,5.28
2023-01-22T09:13:21.492Z,7.17
2023-01-22T09:16:13.231Z,5.87
2023-01-22T09:19:15.933Z,7.15
2023-01-22T09:22:08.288Z,6.53
2023-01-22T09:25:08.271Z,6.17
2023-01-22T09:28:06.735Z,7.22
2023-01-22T21:31:49.236Z,12.85
2023-01-22T21:34:42.611Z,13.32
2023-01-22T21:37:34.301Z,11.95
2023-01-22T21:40:26.703Z,11.75
2023-01-22T21:43:35.837Z,11.88
2023-01-22T21:46:27.716Z,12.70
2023-01-22T21:49:22.866Z,10.85
2023-01-22T21:56:28.470Z,12.75
2023-01-22T21:59:21.114Z,12.45
2023-01-22T22:02:17.764Z,11.10
2023-01-22T22:09:12.109Z,11.30
2023-01-22T22:12:17.085Z,10.95
2023-01-22T22:15:11.819Z,10.25
2023-01-22T22:18:06.029Z,11.10
2023-01-22T22:26:22.319Z,9.63
2023-01-22T22:28:46.771Z,11.33
2023-01-22T22:32:50.942Z,12.60
2023-01-22T22:35:53.347Z,11.85
2023-01-22T22:38:47.144Z,10.43
2023-01-22T22:41:39.725Z,11.80
2023-01-22T22:44:55.683Z,10.68
2023-01-22T22:47:47.612Z,13.25
2023-01-22T22:50:40.737Z,9.98
2023-01-22T22:53:32.463Z,10.03
2023-01-22T22:56:24.965Z,9.78
